LXSAD ELLX-ZZZZ
Flight info
| Callsign | LXSAD |
|---|---|
| Flight time | N/A |
| Altitude | |
| Route | ELLX/24 |
| Aircraft | PA28 |
Departure
| Time | 2026-05-06 18:19 |
|---|---|
| Airport | Luxembourg-Findel International Airport (ELLX) |
Arrival
| Time | N/A |
|---|---|
| Airport | ZZZZ |
| Time | Latitude | Longitude | Altitude | Speed | Heading |
|---|---|---|---|---|---|
| 2026-05-06 18:14 | 49.62841 | 6.20877 | 1190 ft | 17 kts | 64° |
| 2026-05-06 18:14 | 49.62892 | 6.21038 | 1190 ft | 16 kts | 64° |
| 2026-05-06 18:14 | 49.62939 | 6.21193 | 1190 ft | 16 kts | 65° |
| 2026-05-06 18:14 | 49.62984 | 6.21345 | 1190 ft | 15 kts | 65° |
| 2026-05-06 18:15 | 49.63032 | 6.21504 | 1191 ft | 16 kts | 63° |
| 2026-05-06 18:15 | 49.63076 | 6.21644 | 1191 ft | 13 kts | 62° |
| 2026-05-06 18:15 | 49.63116 | 6.21774 | 1191 ft | 15 kts | 68° |
| 2026-05-06 18:15 | 49.63165 | 6.21929 | 1192 ft | 14 kts | 63° |
| 2026-05-06 18:16 | 49.63162 | 6.22036 | 1194 ft | 8 kts | 154° |
| 2026-05-06 18:16 | 49.63100 | 6.22089 | 1202 ft | 10 kts | 150° |
| 2026-05-06 18:16 | 49.63031 | 6.22139 | 1214 ft | 13 kts | 191° |
| 2026-05-06 18:16 | 49.62990 | 6.22083 | 1213 ft | 0 kts | 240° |
| 2026-05-06 18:17 | 49.62990 | 6.22082 | 1213 ft | 0 kts | 240° |
| 2026-05-06 18:18 | 49.62923 | 6.21908 | 1212 ft | 53 kts | 241° |
| 2026-05-06 18:18 | 49.62635 | 6.21146 | 1269 ft | 104 kts | 243° |
| 2026-05-06 18:18 | 49.62242 | 6.20129 | 1572 ft | 122 kts | 244° |
| 2026-05-06 18:18 | 49.61899 | 6.18837 | 1764 ft | 139 kts | 265° |
| 2026-05-06 18:19 | 49.62251 | 6.17433 | 1961 ft | 144 kts | 308° |
| 2026-05-06 18:19 | 49.62926 | 6.16193 | 2027 ft | 161 kts | 314° |
| 2026-05-06 18:19 | 49.63677 | 6.14842 | 2089 ft | 171 kts | 313° |
| 2026-05-06 18:19 | 49.64468 | 6.13441 | 2108 ft | 175 kts | 313° |
| 2026-05-06 18:20 | 49.65276 | 6.12030 | 2097 ft | 174 kts | 314° |
| 2026-05-06 18:20 | 49.66075 | 6.10646 | 2095 ft | 172 kts | 314° |
| 2026-05-06 18:20 | 49.66861 | 6.09270 | 2088 ft | 170 kts | 314° |
| 2026-05-06 18:20 | 49.67643 | 6.07896 | 2096 ft | 170 kts | 314° |
| 2026-05-06 18:21 | 49.68402 | 6.06524 | 2069 ft | 166 kts | 313° |
| 2026-05-06 18:21 | 49.69143 | 6.05173 | 2084 ft | 162 kts | 314° |
| 2026-05-06 18:21 | 49.69862 | 6.03915 | 2087 ft | 152 kts | 314° |
| 2026-05-06 18:21 | 49.70553 | 6.02714 | 1999 ft | 149 kts | 313° |
| 2026-05-06 18:22 | 49.71094 | 6.01360 | 1995 ft | 144 kts | 294° |
| 2026-05-06 18:22 | 49.71822 | 6.00442 | 1975 ft | 139 kts | 349° |
| 2026-05-06 18:22 | 49.72775 | 6.00079 | 1792 ft | 147 kts | 341° |
| 2026-05-06 18:22 | 49.73564 | 5.98945 | 1499 ft | 156 kts | 312° |
| 2026-05-06 18:23 | 49.74243 | 5.97706 | 1683 ft | 141 kts | 311° |
| 2026-05-06 18:23 | 49.74835 | 5.96527 | 1744 ft | 142 kts | 307° |
| 2026-05-06 18:23 | 49.75649 | 5.95699 | 1700 ft | 144 kts | 339° |
| 2026-05-06 18:23 | 49.76584 | 5.95170 | 1753 ft | 142 kts | 340° |
| 2026-05-06 18:24 | 49.77466 | 5.94525 | 1935 ft | 136 kts | 335° |
| 2026-05-06 18:24 | 49.78329 | 5.93897 | 1941 ft | 141 kts | 338° |
| 2026-05-06 18:24 | 49.79266 | 5.93246 | 1784 ft | 150 kts | 335° |
| 2026-05-06 18:24 | 49.80191 | 5.92574 | 1802 ft | 146 kts | 336° |
| 2026-05-06 18:25 | 49.81113 | 5.91932 | 1825 ft | 145 kts | 340° |
| 2026-05-06 18:25 | 49.82080 | 5.91544 | 1801 ft | 142 kts | 347° |
| 2026-05-06 18:25 | 49.82974 | 5.90865 | 1806 ft | 145 kts | 337° |
| 2026-05-06 18:25 | 49.83959 | 5.90404 | 2003 ft | 154 kts | 343° |
| 2026-05-06 18:26 | 49.85014 | 5.89914 | 2005 ft | 165 kts | 345° |
| 2026-05-06 18:26 | 49.86142 | 5.89437 | 1994 ft | 170 kts | 345° |
| 2026-05-06 18:26 | 49.87289 | 5.88926 | 2026 ft | 173 kts | 343° |
| 2026-05-06 18:26 | 49.88390 | 5.88405 | 1985 ft | 156 kts | 342° |
| 2026-05-06 18:27 | 49.89393 | 5.87966 | 1930 ft | 145 kts | 346° |
| 2026-05-06 18:27 | 49.90351 | 5.87539 | 1987 ft | 144 kts | 343° |
| 2026-05-06 18:27 | 49.91314 | 5.87093 | 2009 ft | 144 kts | 343° |
| 2026-05-06 18:27 | 49.92261 | 5.86644 | 1995 ft | 141 kts | 344° |
| 2026-05-06 18:28 | 49.93180 | 5.86207 | 2004 ft | 136 kts | 344° |
| 2026-05-06 18:28 | 49.94115 | 5.85824 | 1973 ft | 139 kts | 348° |
| 2026-05-06 18:28 | 49.95087 | 5.85770 | 1934 ft | 142 kts | 9° |
| 2026-05-06 18:28 | 49.95966 | 5.86454 | 1885 ft | 141 kts | 38° |
| 2026-05-06 18:29 | 49.96569 | 5.87652 | 1736 ft | 142 kts | 60° |
| 2026-05-06 18:29 | 49.97322 | 5.88446 | 1640 ft | 119 kts | 18° |
| 2026-05-06 18:29 | 49.97901 | 5.89033 | 1552 ft | 92 kts | 55° |
| 2026-05-06 18:29 | 49.97948 | 5.89975 | 1580 ft | 99 kts | 108° |
| 2026-05-06 18:30 | 49.97540 | 5.91001 | 1514 ft | 114 kts | 106° |
| 2026-05-06 18:30 | 49.97772 | 5.92038 | 1472 ft | 110 kts | 52° |
| 2026-05-06 18:30 | 49.98239 | 5.92898 | 1583 ft | 105 kts | 40° |
| 2026-05-06 18:30 | 49.98760 | 5.93253 | 1498 ft | 102 kts | 298° |
| 2026-05-06 18:31 | 49.98401 | 5.92409 | 1535 ft | 107 kts | 219° |
| 2026-05-06 18:31 | 49.98040 | 5.91539 | 1523 ft | 88 kts | 263° |
| 2026-05-06 18:31 | 49.98015 | 5.91396 | 1523 ft | 0 kts | 257° |
| 2026-05-06 18:31 | 49.98013 | 5.91378 | 1523 ft | 16 kts | 258° |
| 2026-05-06 18:32 | 49.97972 | 5.91096 | 1522 ft | 0 kts | 100° |
| 2026-05-06 18:32 | 49.97972 | 5.91097 | 1522 ft | 0 kts | 101° |
| 2026-05-06 18:33 | 49.98162 | 5.92220 | 1484 ft | 0 kts | 256° |
| 2026-05-06 18:33 | 49.98162 | 5.92219 | 1484 ft | 2 kts | 256° |
| 2026-05-06 18:34 | 49.98100 | 5.91871 | 1502 ft | 63 kts | 255° |
| 2026-05-06 18:34 | 49.97916 | 5.91002 | 1589 ft | 108 kts | 251° |
| 2026-05-06 18:34 | 49.97558 | 5.89979 | 1947 ft | 124 kts | 247° |
| 2026-05-06 18:34 | 49.97112 | 5.88559 | 1865 ft | 163 kts | 248° |
| 2026-05-06 18:35 | 49.96131 | 5.87780 | 1994 ft | 179 kts | 169° |
| 2026-05-06 18:35 | 49.95120 | 5.88940 | 1892 ft | 192 kts | 142° |
| 2026-05-06 18:35 | 49.93999 | 5.90053 | 1942 ft | 189 kts | 147° |
| 2026-05-06 18:35 | 49.93128 | 5.91506 | 1902 ft | 184 kts | 117° |
| 2026-05-06 18:36 | 49.92291 | 5.92925 | 2094 ft | 179 kts | 136° |
| 2026-05-06 18:36 | 49.91346 | 5.94205 | 2079 ft | 181 kts | 136° |
| 2026-05-06 18:36 | 49.90400 | 5.95510 | 2078 ft | 183 kts | 136° |
| 2026-05-06 18:36 | 49.89444 | 5.96847 | 2094 ft | 186 kts | 136° |
| 2026-05-06 18:37 | 49.88474 | 5.98192 | 2084 ft | 187 kts | 137° |
| 2026-05-06 18:37 | 49.87772 | 5.99027 | 1923 ft | 195 kts | 143° |
| 2026-05-06 18:37 | 49.86300 | 6.00624 | 1932 ft | 192 kts | 143° |
| 2026-05-06 18:37 | 49.85215 | 6.01830 | 1922 ft | 190 kts | 143° |
| 2026-05-06 18:38 | 49.84150 | 6.03031 | 1901 ft | 188 kts | 143° |
| 2026-05-06 18:38 | 49.83110 | 6.04215 | 1900 ft | 188 kts | 143° |
| 2026-05-06 18:38 | 49.82054 | 6.05402 | 1889 ft | 186 kts | 143° |
| 2026-05-06 18:38 | 49.81007 | 6.06574 | 1909 ft | 186 kts | 143° |
| 2026-05-06 18:39 | 49.79943 | 6.07738 | 1910 ft | 188 kts | 143° |
| 2026-05-06 18:39 | 49.78879 | 6.08904 | 1916 ft | 187 kts | 143° |
| 2026-05-06 18:39 | 49.77812 | 6.10060 | 1918 ft | 188 kts | 144° |
| 2026-05-06 18:40 | 49.75663 | 6.12327 | 1913 ft | 186 kts | 149° |
| 2026-05-06 18:40 | 49.74559 | 6.13341 | 2005 ft | 182 kts | 147° |
| 2026-05-06 18:40 | 49.73429 | 6.14208 | 2105 ft | 181 kts | 156° |
| 2026-05-06 18:40 | 49.72264 | 6.14927 | 2205 ft | 182 kts | 159° |
| 2026-05-06 18:41 | 49.71036 | 6.15513 | 2214 ft | 181 kts | 164° |
| 2026-05-06 18:41 | 49.69846 | 6.16020 | 2090 ft | 174 kts | 165° |
| 2026-05-06 18:41 | 49.68713 | 6.16475 | 1599 ft | 158 kts | 165° |
| 2026-05-06 18:41 | 49.67776 | 6.17127 | 1529 ft | 131 kts | 150° |
| 2026-05-06 18:42 | 49.67067 | 6.17841 | 1451 ft | 113 kts | 142° |
| 2026-05-06 18:42 | 49.66462 | 6.18606 | 1570 ft | 113 kts | 138° |
| 2026-05-06 18:42 | 49.65867 | 6.19448 | 1579 ft | 122 kts | 139° |
| 2026-05-06 18:42 | 49.65132 | 6.20088 | 1537 ft | 119 kts | 157° |
| 2026-05-06 18:43 | 49.64714 | 6.20993 | 1521 ft | 101 kts | 86° |
| 2026-05-06 18:43 | 49.64872 | 6.22058 | 1515 ft | 106 kts | 60° |
| 2026-05-06 18:43 | 49.65335 | 6.22860 | 1615 ft | 103 kts | 2° |
| 2026-05-06 18:43 | 49.65509 | 6.22008 | 1708 ft | 112 kts | 233° |
| 2026-05-06 18:44 | 49.64970 | 6.22423 | 1671 ft | 117 kts | 63° |
| 2026-05-06 18:44 | 49.65545 | 6.22424 | 1722 ft | 108 kts | 293° |
| 2026-05-06 18:44 | 49.64985 | 6.21995 | 1696 ft | 123 kts | 141° |
| 2026-05-06 18:44 | 49.64946 | 6.23064 | 1822 ft | 99 kts | 36° |
| 2026-05-06 18:45 | 49.65225 | 6.22492 | 1700 ft | 118 kts | 230° |
| 2026-05-06 18:45 | 49.64596 | 6.22826 | 1664 ft | 126 kts | 89° |
| 2026-05-06 18:45 | 49.65189 | 6.23355 | 1595 ft | 106 kts | 336° |
| 2026-05-06 18:45 | 49.65499 | 6.22788 | 1586 ft | 103 kts | 300° |
| 2026-05-06 18:46 | 49.66256 | 6.22761 | 1699 ft | 109 kts | 59° |
| 2026-05-06 18:46 | 49.66257 | 6.24003 | 1647 ft | 129 kts | 104° |
| 2026-05-06 18:46 | 49.65550 | 6.24878 | 1475 ft | 144 kts | 173° |
| 2026-05-06 18:46 | 49.64656 | 6.24951 | 1428 ft | 122 kts | 170° |
| 2026-05-06 18:47 | 49.63968 | 6.24642 | 1397 ft | 101 kts | 239° |
| 2026-05-06 18:47 | 49.63632 | 6.23810 | 1292 ft | 83 kts | 246° |
| 2026-05-06 18:47 | 49.63334 | 6.23016 | 1224 ft | 80 kts | 247° |
| 2026-05-06 18:47 | 49.63101 | 6.22382 | 1216 ft | 57 kts | 240° |
| 2026-05-06 18:48 | 49.63068 | 6.22116 | 1210 ft | 17 kts | 334° |
| 2026-05-06 18:48 | 49.63157 | 6.22039 | 1194 ft | 0 kts | 330° |
| 2026-05-06 18:48 | 49.63166 | 6.22028 | 1193 ft | 3 kts | 320° |
| 2026-05-06 18:48 | 49.63170 | 6.21944 | 1192 ft | 12 kts | 245° |
| 2026-05-06 18:49 | 49.63137 | 6.21835 | 1191 ft | 10 kts | 245° |
| 2026-05-06 18:49 | 49.63107 | 6.21745 | 1191 ft | 10 kts | 246° |
| 2026-05-06 18:49 | 49.63078 | 6.21648 | 1191 ft | 10 kts | 246° |
| 2026-05-06 18:49 | 49.63058 | 6.21585 | 1191 ft | 10 kts | 242° |
| 2026-05-06 18:50 | 49.63010 | 6.21434 | 1191 ft | 14 kts | 244° |
| 2026-05-06 18:50 | 49.62981 | 6.21339 | 1190 ft | 16 kts | 246° |
| 2026-05-06 18:50 | 49.62938 | 6.21189 | 1190 ft | 14 kts | 245° |
| 2026-05-06 18:50 | 49.62890 | 6.21036 | 1190 ft | 11 kts | 240° |
| 2026-05-06 18:51 | 49.62868 | 6.20965 | 1190 ft | 12 kts | 248° |
| 2026-05-06 18:51 | 49.62814 | 6.20790 | 1190 ft | 14 kts | 245° |
| 2026-05-06 18:51 | 49.62776 | 6.20719 | 1190 ft | 12 kts | 226° |
| 2026-05-06 18:51 | 49.62674 | 6.20592 | 1191 ft | 15 kts | 218° |
| 2026-05-06 18:52 | 49.62629 | 6.20514 | 1191 ft | 15 kts | 230° |
| 2026-05-06 18:52 | 49.62559 | 6.20389 | 1191 ft | 17 kts | 228° |
| 2026-05-06 18:52 | 49.62487 | 6.20251 | 1192 ft | 16 kts | 236° |
| 2026-05-06 18:52 | 49.62433 | 6.20108 | 1192 ft | 15 kts | 241° |
| 2026-05-06 18:53 | 49.62384 | 6.19976 | 1192 ft | 13 kts | 238° |
| 2026-05-06 18:53 | 49.62336 | 6.19848 | 1192 ft | 14 kts | 240° |
| 2026-05-06 18:53 | 49.62390 | 6.19756 | 1190 ft | 6 kts | 278° |
| 2026-05-06 18:53 | 49.62376 | 6.19708 | 1190 ft | 2 kts | 244° |